Airfield :
LOGIN :

Register | Disclaimer

   EN    FR    IT 

 










Legend :    VFR   Marginal VFR   IFR   Intensive IFR   Very Intensive IFR
Visi :
Ceiling :
>= 8 km
>= 3000ft
5 to 8 km
1000 to 3000 ft
1500m to 5 km
500 to 1000 ft
800 to 1500m
200 to 500 ft
< 800m
< 200 ft
Symbols :   Thunderstorms  Fog  Heavy snow  Heavy precipitations  Wind > 20 kt
SIGMETs :     Misc.  Thunderstorms  Icing  Turbulence  Mountain Waves  Volcanic Ashes







- Airport Elevation : 776 ft
- IATA code : RMS


ETAR - Ramstein Air Base

CURRENT METAR :
  • 150956Z 00000KT 9999 CLR 19/11 A2995 RMK AO2A SLP144 T01850185 $

EXPIRED METARs :
  • 150856Z 00000KT 9999 CLR 15/11 A2996 RMK AO2A SLP148 T01480148 51011 $
  • 150756Z AUTO 00000KT 9999 CLR 11/ A2996 RMK AO2 SLP150 $

TAF TAF ETAR
Valid from the 15 at 10:00 until the 16 at 16:00 UTC


151004Z 1510/1616 04006KT 9999 FEW200 QNH2990INS
TEMPO 1604/1607 8000 BR
BECMG 1608/1609 08006KT 9999 FEW200 QNH3002INS TX26/1513Z TN05/1606Z
No reported NOTAMs for that airfield.



MET'MAP, your aeronautical weather chart ! - Copyright ORBIFLY December 2007 - Disclaimer

ORBIFLY MET'MAP TEAM :

Programming & Development : Alexandra Zaïnal
Concept & Development : Baudouin d'Aumeries
Co-Development & Prog : Marc-Olivier Méhu
Technical & hardware support : Manuel Goepfert

Contact : metmap@orbifly.com




SOURCES & CREDITS :

   NOAA